sensor_id;sensor_type;location;lat;lon;timestamp;P1;durP1;ratioP1;P2;durP2;ratioP2
33987;SDS011;37428;53.580;-1.666;2023-07-20T00:02:44;2.00;;;1.38;;
33987;SDS011;37428;53.580;-1.666;2023-07-20T00:09:14;4.63;;;2.65;;
33987;SDS011;37428;53.580;-1.666;2023-07-20T00:12:40;3.20;;;1.50;;
33987;SDS011;37428;53.580;-1.666;2023-07-20T00:16:17;4.07;;;1.98;;
33987;SDS011;37428;53.580;-1.666;2023-07-20T00:19:16;2.33;;;1.88;;
33987;SDS011;37428;53.580;-1.666;2023-07-20T00:26:15;5.35;;;1.73;;
33987;SDS011;37428;53.580;-1.666;2023-07-20T00:29:23;2.50;;;1.60;;
33987;SDS011;37428;53.580;-1.666;2023-07-20T00:32:27;4.05;;;1.75;;
33987;SDS011;37428;53.580;-1.666;2023-07-20T00:35:49;4.97;;;2.05;;
33987;SDS011;37428;53.580;-1.666;2023-07-20T00:42:40;3.78;;;1.90;;
33987;SDS011;37428;53.580;-1.666;2023-07-20T00:46:20;3.75;;;1.80;;
33987;SDS011;37428;53.580;-1.666;2023-07-20T00:51:26;3.17;;;1.83;;
33987;SDS011;37428;53.580;-1.666;2023-07-20T00:53:48;3.75;;;1.77;;
33987;SDS011;37428;53.580;-1.666;2023-07-20T00:56:52;2.95;;;1.77;;
33987;SDS011;37428;53.580;-1.666;2023-07-20T01:00:31;2.17;;;1.58;;
33987;SDS011;37428;53.580;-1.666;2023-07-20T01:03:49;7.07;;;2.10;;
33987;SDS011;37428;53.580;-1.666;2023-07-20T01:07:00;3.33;;;1.98;;
33987;SDS011;37428;53.580;-1.666;2023-07-20T01:10:10;3.58;;;1.98;;
33987;SDS011;37428;53.580;-1.666;2023-07-20T01:13:30;2.60;;;2.03;;
33987;SDS011;37428;53.580;-1.666;2023-07-20T01:16:47;4.65;;;2.08;;
33987;SDS011;37428;53.580;-1.666;2023-07-20T01:23:36;5.47;;;2.00;;
33987;SDS011;37428;53.580;-1.666;2023-07-20T01:41:22;3.22;;;1.77;;
33987;SDS011;37428;53.580;-1.666;2023-07-20T01:44:57;4.05;;;1.80;;
33987;SDS011;37428;53.580;-1.666;2023-07-20T01:48:23;5.70;;;2.13;;
33987;SDS011;37428;53.580;-1.666;2023-07-20T01:51:35;4.43;;;1.65;;
33987;SDS011;37428;53.580;-1.666;2023-07-20T01:55:02;3.08;;;1.58;;
33987;SDS011;37428;53.580;-1.666;2023-07-20T01:58:08;4.05;;;2.10;;
33987;SDS011;37428;53.580;-1.666;2023-07-20T02:01:10;2.50;;;1.90;;
33987;SDS011;37428;53.580;-1.666;2023-07-20T02:04:14;5.15;;;2.40;;
33987;SDS011;37428;53.580;-1.666;2023-07-20T02:07:22;2.00;;;1.85;;
33987;SDS011;37428;53.580;-1.666;2023-07-20T02:10:26;3.00;;;2.50;;
33987;SDS011;37428;53.580;-1.666;2023-07-20T02:13:28;4.28;;;2.13;;
33987;SDS011;37428;53.580;-1.666;2023-07-20T02:16:30;5.00;;;2.75;;
33987;SDS011;37428;53.580;-1.666;2023-07-20T02:20:04;4.30;;;2.60;;
33987;SDS011;37428;53.580;-1.666;2023-07-20T02:22:58;3.13;;;2.20;;
33987;SDS011;37428;53.580;-1.666;2023-07-20T02:26:01;5.07;;;2.53;;
33987;SDS011;37428;53.580;-1.666;2023-07-20T02:29:03;3.67;;;2.58;;
33987;SDS011;37428;53.580;-1.666;2023-07-20T02:32:17;4.22;;;2.63;;
33987;SDS011;37428;53.580;-1.666;2023-07-20T02:35:19;5.68;;;3.42;;
33987;SDS011;37428;53.580;-1.666;2023-07-20T02:38:23;8.18;;;3.17;;
33987;SDS011;37428;53.580;-1.666;2023-07-20T02:41:39;7.47;;;3.58;;
33987;SDS011;37428;53.580;-1.666;2023-07-20T02:44:41;4.85;;;2.92;;
33987;SDS011;37428;53.580;-1.666;2023-07-20T02:47:46;6.13;;;3.08;;
33987;SDS011;37428;53.580;-1.666;2023-07-20T02:50:48;6.10;;;3.53;;
33987;SDS011;37428;53.580;-1.666;2023-07-20T02:53:52;5.13;;;3.72;;
33987;SDS011;37428;53.580;-1.666;2023-07-20T02:57:08;6.30;;;3.78;;
33987;SDS011;37428;53.580;-1.666;2023-07-20T03:00:12;5.30;;;3.83;;
33987;SDS011;37428;53.580;-1.666;2023-07-20T03:03:22;5.97;;;4.00;;
33987;SDS011;37428;53.580;-1.666;2023-07-20T03:06:32;6.65;;;4.60;;
33987;SDS011;37428;53.580;-1.666;2023-07-20T03:09:36;6.85;;;4.60;;
33987;SDS011;37428;53.580;-1.666;2023-07-20T03:12:53;7.82;;;4.22;;
33987;SDS011;37428;53.580;-1.666;2023-07-20T03:16:07;6.40;;;5.05;;
33987;SDS011;37428;53.580;-1.666;2023-07-20T03:19:36;7.55;;;4.57;;
33987;SDS011;37428;53.580;-1.666;2023-07-20T03:22:54;6.80;;;4.65;;
33987;SDS011;37428;53.580;-1.666;2023-07-20T03:26:40;7.85;;;4.65;;
33987;SDS011;37428;53.580;-1.666;2023-07-20T03:29:36;6.13;;;5.30;;
33987;SDS011;37428;53.580;-1.666;2023-07-20T03:32:40;7.07;;;4.97;;
33987;SDS011;37428;53.580;-1.666;2023-07-20T03:35:57;8.27;;;4.80;;
33987;SDS011;37428;53.580;-1.666;2023-07-20T03:39:08;5.05;;;4.55;;
33987;SDS011;37428;53.580;-1.666;2023-07-20T03:42:34;8.30;;;5.47;;
33987;SDS011;37428;53.580;-1.666;2023-07-20T03:45:40;11.50;;;5.70;;
33987;SDS011;37428;53.580;-1.666;2023-07-20T03:48:50;6.40;;;5.03;;
33987;SDS011;37428;53.580;-1.666;2023-07-20T03:52:00;6.55;;;5.38;;
33987;SDS011;37428;53.580;-1.666;2023-07-20T03:55:06;7.72;;;5.22;;
33987;SDS011;37428;53.580;-1.666;2023-07-20T03:58:19;6.90;;;5.32;;
33987;SDS011;37428;53.580;-1.666;2023-07-20T04:01:33;6.25;;;5.47;;
33987;SDS011;37428;53.580;-1.666;2023-07-20T04:04:50;7.18;;;5.68;;
33987;SDS011;37428;53.580;-1.666;2023-07-20T04:07:58;6.75;;;6.05;;
33987;SDS011;37428;53.580;-1.666;2023-07-20T04:11:01;9.35;;;6.10;;
33987;SDS011;37428;53.580;-1.666;2023-07-20T04:14:20;6.38;;;5.78;;
33987;SDS011;37428;53.580;-1.666;2023-07-20T04:17:24;7.60;;;6.63;;
33987;SDS011;37428;53.580;-1.666;2023-07-20T04:20:26;12.55;;;6.32;;
33987;SDS011;37428;53.580;-1.666;2023-07-20T04:23:29;7.38;;;6.38;;
33987;SDS011;37428;53.580;-1.666;2023-07-20T04:26:37;7.75;;;6.35;;
33987;SDS011;37428;53.580;-1.666;2023-07-20T04:30:00;11.18;;;6.72;;
33987;SDS011;37428;53.580;-1.666;2023-07-20T04:33:05;8.80;;;7.53;;
33987;SDS011;37428;53.580;-1.666;2023-07-20T04:36:18;12.13;;;7.88;;
33987;SDS011;37428;53.580;-1.666;2023-07-20T04:39:30;12.43;;;7.32;;
33987;SDS011;37428;53.580;-1.666;2023-07-20T04:42:34;12.40;;;8.07;;
33987;SDS011;37428;53.580;-1.666;2023-07-20T04:49:13;8.75;;;7.63;;
33987;SDS011;37428;53.580;-1.666;2023-07-20T04:52:17;9.18;;;7.40;;
33987;SDS011;37428;53.580;-1.666;2023-07-20T04:55:21;8.70;;;7.80;;
33987;SDS011;37428;53.580;-1.666;2023-07-20T04:58:45;14.90;;;9.55;;
33987;SDS011;37428;53.580;-1.666;2023-07-20T05:02:18;11.73;;;9.00;;
33987;SDS011;37428;53.580;-1.666;2023-07-20T05:05:25;14.30;;;10.20;;
33987;SDS011;37428;53.580;-1.666;2023-07-20T05:08:36;13.18;;;9.32;;
33987;SDS011;37428;53.580;-1.666;2023-07-20T05:11:45;13.88;;;11.05;;
33987;SDS011;37428;53.580;-1.666;2023-07-20T05:15:18;15.30;;;11.07;;
33987;SDS011;37428;53.580;-1.666;2023-07-20T05:18:47;13.65;;;10.85;;
33987;SDS011;37428;53.580;-1.666;2023-07-20T05:21:51;17.00;;;12.13;;
33987;SDS011;37428;53.580;-1.666;2023-07-20T05:24:55;17.60;;;11.38;;
33987;SDS011;37428;53.580;-1.666;2023-07-20T05:28:04;15.68;;;11.80;;
33987;SDS011;37428;53.580;-1.666;2023-07-20T05:31:27;15.65;;;11.45;;
33987;SDS011;37428;53.580;-1.666;2023-07-20T05:34:30;16.13;;;12.48;;
33987;SDS011;37428;53.580;-1.666;2023-07-20T05:41:18;15.63;;;12.70;;
33987;SDS011;37428;53.580;-1.666;2023-07-20T05:44:22;12.75;;;11.10;;
33987;SDS011;37428;53.580;-1.666;2023-07-20T05:47:29;16.73;;;12.05;;
33987;SDS011;37428;53.580;-1.666;2023-07-20T05:53:47;13.75;;;11.55;;
33987;SDS011;37428;53.580;-1.666;2023-07-20T05:57:03;14.88;;;11.88;;
33987;SDS011;37428;53.580;-1.666;2023-07-20T06:00:14;14.93;;;11.82;;
33987;SDS011;37428;53.580;-1.666;2023-07-20T06:03:31;13.38;;;11.40;;
33987;SDS011;37428;53.580;-1.666;2023-07-20T06:06:54;15.95;;;11.90;;
33987;SDS011;37428;53.580;-1.666;2023-07-20T06:10:02;14.43;;;12.38;;
33987;SDS011;37428;53.580;-1.666;2023-07-20T06:16:40;15.50;;;11.93;;
33987;SDS011;37428;53.580;-1.666;2023-07-20T06:19:50;16.50;;;12.18;;
33987;SDS011;37428;53.580;-1.666;2023-07-20T06:26:44;15.52;;;11.68;;
33987;SDS011;37428;53.580;-1.666;2023-07-20T06:29:49;15.48;;;12.43;;
33987;SDS011;37428;53.580;-1.666;2023-07-20T06:33:04;17.63;;;12.68;;
33987;SDS011;37428;53.580;-1.666;2023-07-20T06:36:08;15.52;;;12.85;;
33987;SDS011;37428;53.580;-1.666;2023-07-20T06:39:27;12.40;;;11.15;;
33987;SDS011;37428;53.580;-1.666;2023-07-20T06:45:59;15.98;;;11.30;;
33987;SDS011;37428;53.580;-1.666;2023-07-20T06:49:01;19.45;;;11.85;;
33987;SDS011;37428;53.580;-1.666;2023-07-20T06:52:15;14.65;;;10.70;;
33987;SDS011;37428;53.580;-1.666;2023-07-20T06:55:27;14.93;;;11.23;;
33987;SDS011;37428;53.580;-1.666;2023-07-20T06:58:29;15.23;;;11.55;;
33987;SDS011;37428;53.580;-1.666;2023-07-20T07:01:34;13.05;;;10.98;;
33987;SDS011;37428;53.580;-1.666;2023-07-20T07:04:56;13.23;;;11.60;;
33987;SDS011;37428;53.580;-1.666;2023-07-20T07:08:17;11.90;;;10.07;;
33987;SDS011;37428;53.580;-1.666;2023-07-20T07:11:29;13.05;;;10.55;;
33987;SDS011;37428;53.580;-1.666;2023-07-20T07:14:51;15.98;;;10.55;;
33987;SDS011;37428;53.580;-1.666;2023-07-20T07:18:14;12.75;;;10.70;;
33987;SDS011;37428;53.580;-1.666;2023-07-20T07:21:26;11.88;;;10.13;;
33987;SDS011;37428;53.580;-1.666;2023-07-20T07:24:30;12.98;;;11.60;;
33987;SDS011;37428;53.580;-1.666;2023-07-20T07:27:35;10.77;;;9.68;;
33987;SDS011;37428;53.580;-1.666;2023-07-20T07:30:57;15.82;;;10.77;;
33987;SDS011;37428;53.580;-1.666;2023-07-20T07:34:02;10.73;;;9.10;;
33987;SDS011;37428;53.580;-1.666;2023-07-20T07:37:18;11.75;;;9.93;;
33987;SDS011;37428;53.580;-1.666;2023-07-20T07:40:23;12.57;;;8.93;;
33987;SDS011;37428;53.580;-1.666;2023-07-20T07:43:27;12.77;;;8.68;;
33987;SDS011;37428;53.580;-1.666;2023-07-20T07:46:54;12.70;;;9.25;;
33987;SDS011;37428;53.580;-1.666;2023-07-20T07:50:04;10.43;;;9.38;;
33987;SDS011;37428;53.580;-1.666;2023-07-20T07:53:07;11.02;;;9.00;;
33987;SDS011;37428;53.580;-1.666;2023-07-20T07:56:11;10.13;;;8.98;;
33987;SDS011;37428;53.580;-1.666;2023-07-20T07:59:16;9.38;;;8.40;;
33987;SDS011;37428;53.580;-1.666;2023-07-20T08:02:24;13.48;;;9.25;;
33987;SDS011;37428;53.580;-1.666;2023-07-20T08:05:30;14.95;;;10.30;;
33987;SDS011;37428;53.580;-1.666;2023-07-20T08:08:44;12.13;;;8.63;;
33987;SDS011;37428;53.580;-1.666;2023-07-20T08:11:47;11.48;;;9.48;;
33987;SDS011;37428;53.580;-1.666;2023-07-20T08:15:06;13.85;;;10.10;;
33987;SDS011;37428;53.580;-1.666;2023-07-20T08:18:28;11.05;;;9.00;;
33987;SDS011;37428;53.580;-1.666;2023-07-20T08:21:33;10.70;;;9.60;;
33987;SDS011;37428;53.580;-1.666;2023-07-20T08:25:09;12.55;;;9.65;;
33987;SDS011;37428;53.580;-1.666;2023-07-20T08:28:13;9.85;;;8.85;;
33987;SDS011;37428;53.580;-1.666;2023-07-20T08:31:41;11.77;;;8.82;;
33987;SDS011;37428;53.580;-1.666;2023-07-20T08:34:43;10.65;;;9.30;;
33987;SDS011;37428;53.580;-1.666;2023-07-20T08:38:05;10.40;;;9.20;;
33987;SDS011;37428;53.580;-1.666;2023-07-20T08:41:09;9.43;;;8.52;;
33987;SDS011;37428;53.580;-1.666;2023-07-20T08:44:13;9.65;;;8.65;;
33987;SDS011;37428;53.580;-1.666;2023-07-20T08:51:05;9.70;;;8.63;;
33987;SDS011;37428;53.580;-1.666;2023-07-20T08:57:45;12.13;;;10.00;;
33987;SDS011;37428;53.580;-1.666;2023-07-20T09:00:51;15.77;;;14.23;;
33987;SDS011;37428;53.580;-1.666;2023-07-20T09:04:10;14.73;;;13.25;;
33987;SDS011;37428;53.580;-1.666;2023-07-20T09:08:54;19.35;;;15.35;;
33987;SDS011;37428;53.580;-1.666;2023-07-20T09:11:06;31.60;;;22.23;;
33987;SDS011;37428;53.580;-1.666;2023-07-20T09:14:19;10.63;;;9.00;;
33987;SDS011;37428;53.580;-1.666;2023-07-20T09:17:45;9.30;;;8.40;;
33987;SDS011;37428;53.580;-1.666;2023-07-20T09:20:57;8.27;;;6.85;;
33987;SDS011;37428;53.580;-1.666;2023-07-20T09:24:09;9.88;;;8.50;;
33987;SDS011;37428;53.580;-1.666;2023-07-20T09:27:22;8.18;;;7.47;;
33987;SDS011;37428;53.580;-1.666;2023-07-20T09:30:33;9.05;;;8.10;;
33987;SDS011;37428;53.580;-1.666;2023-07-20T09:33:38;12.93;;;10.32;;
33987;SDS011;37428;53.580;-1.666;2023-07-20T09:36:40;11.57;;;9.48;;
33987;SDS011;37428;53.580;-1.666;2023-07-20T09:39:43;9.45;;;7.57;;
33987;SDS011;37428;53.580;-1.666;2023-07-20T09:42:56;11.75;;;8.27;;
33987;SDS011;37428;53.580;-1.666;2023-07-20T09:46:21;14.07;;;10.93;;
33987;SDS011;37428;53.580;-1.666;2023-07-20T09:49:44;8.57;;;7.78;;
33987;SDS011;37428;53.580;-1.666;2023-07-20T09:53:27;10.23;;;9.13;;
33987;SDS011;37428;53.580;-1.666;2023-07-20T09:56:20;9.63;;;8.65;;
33987;SDS011;37428;53.580;-1.666;2023-07-20T10:01:10;8.70;;;7.53;;
33987;SDS011;37428;53.580;-1.666;2023-07-20T10:03:13;9.75;;;7.20;;
33987;SDS011;37428;53.580;-1.666;2023-07-20T10:06:20;8.77;;;7.80;;
33987;SDS011;37428;53.580;-1.666;2023-07-20T10:11:04;7.80;;;7.10;;
33987;SDS011;37428;53.580;-1.666;2023-07-20T10:12:55;9.48;;;8.18;;
33987;SDS011;37428;53.580;-1.666;2023-07-20T10:16:02;9.27;;;7.32;;
33987;SDS011;37428;53.580;-1.666;2023-07-20T10:19:13;8.88;;;7.90;;
33987;SDS011;37428;53.580;-1.666;2023-07-20T10:22:26;11.68;;;6.97;;
33987;SDS011;37428;53.580;-1.666;2023-07-20T10:25:32;8.50;;;7.80;;
33987;SDS011;37428;53.580;-1.666;2023-07-20T10:28:49;8.98;;;8.13;;
33987;SDS011;37428;53.580;-1.666;2023-07-20T10:31:52;6.95;;;6.32;;
33987;SDS011;37428;53.580;-1.666;2023-07-20T10:34:57;7.88;;;7.00;;
33987;SDS011;37428;53.580;-1.666;2023-07-20T10:38:00;6.28;;;5.72;;
33987;SDS011;37428;53.580;-1.666;2023-07-20T10:41:09;7.07;;;6.38;;
33987;SDS011;37428;53.580;-1.666;2023-07-20T10:44:41;7.35;;;6.60;;
33987;SDS011;37428;53.580;-1.666;2023-07-20T10:47:55;7.38;;;6.25;;
33987;SDS011;37428;53.580;-1.666;2023-07-20T10:54:35;7.30;;;6.43;;
33987;SDS011;37428;53.580;-1.666;2023-07-20T10:58:19;7.88;;;5.50;;
33987;SDS011;37428;53.580;-1.666;2023-07-20T11:01:50;7.53;;;6.57;;
33987;SDS011;37428;53.580;-1.666;2023-07-20T11:05:09;7.85;;;7.15;;
33987;SDS011;37428;53.580;-1.666;2023-07-20T11:12:37;6.32;;;5.72;;
33987;SDS011;37428;53.580;-1.666;2023-07-20T11:15:46;6.65;;;6.03;;
33987;SDS011;37428;53.580;-1.666;2023-07-20T11:19:15;7.07;;;6.55;;
33987;SDS011;37428;53.580;-1.666;2023-07-20T11:22:39;6.07;;;5.47;;
33987;SDS011;37428;53.580;-1.666;2023-07-20T11:25:57;5.60;;;5.20;;
33987;SDS011;37428;53.580;-1.666;2023-07-20T11:29:19;6.43;;;5.85;;
33987;SDS011;37428;53.580;-1.666;2023-07-20T11:32:27;7.45;;;6.75;;
33987;SDS011;37428;53.580;-1.666;2023-07-20T11:35:49;6.80;;;5.45;;
33987;SDS011;37428;53.580;-1.666;2023-07-20T11:38:57;5.95;;;5.35;;
33987;SDS011;37428;53.580;-1.666;2023-07-20T11:42:19;5.90;;;5.40;;
33987;SDS011;37428;53.580;-1.666;2023-07-20T11:45:53;7.80;;;6.07;;
33987;SDS011;37428;53.580;-1.666;2023-07-20T11:48:57;6.13;;;5.63;;
33987;SDS011;37428;53.580;-1.666;2023-07-20T11:52:02;6.30;;;5.57;;
33987;SDS011;37428;53.580;-1.666;2023-07-20T11:55:13;6.00;;;5.57;;
33987;SDS011;37428;53.580;-1.666;2023-07-20T11:58:19;7.13;;;6.00;;
33987;SDS011;37428;53.580;-1.666;2023-07-20T12:01:29;7.72;;;6.80;;
33987;SDS011;37428;53.580;-1.666;2023-07-20T12:04:37;8.20;;;6.85;;
33987;SDS011;37428;53.580;-1.666;2023-07-20T12:07:44;7.65;;;6.70;;
33987;SDS011;37428;53.580;-1.666;2023-07-20T12:12:22;6.13;;;5.53;;
33987;SDS011;37428;53.580;-1.666;2023-07-20T12:14:32;5.55;;;5.05;;
33987;SDS011;37428;53.580;-1.666;2023-07-20T12:17:38;5.57;;;5.07;;
33987;SDS011;37428;53.580;-1.666;2023-07-20T12:20:43;6.90;;;5.18;;
33987;SDS011;37428;53.580;-1.666;2023-07-20T12:23:48;7.50;;;4.75;;
33987;SDS011;37428;53.580;-1.666;2023-07-20T12:27:06;9.65;;;5.97;;
33987;SDS011;37428;53.580;-1.666;2023-07-20T12:30:08;9.65;;;5.97;;
33987;SDS011;37428;53.580;-1.666;2023-07-20T12:33:16;6.15;;;5.63;;
33987;SDS011;37428;53.580;-1.666;2023-07-20T12:36:20;5.55;;;5.15;;
33987;SDS011;37428;53.580;-1.666;2023-07-20T12:42:39;4.88;;;4.35;;
33987;SDS011;37428;53.580;-1.666;2023-07-20T12:45:47;4.85;;;4.45;;
33987;SDS011;37428;53.580;-1.666;2023-07-20T12:48:53;5.53;;;4.03;;
33987;SDS011;37428;53.580;-1.666;2023-07-20T12:51:55;5.90;;;4.07;;
33987;SDS011;37428;53.580;-1.666;2023-07-20T12:54:57;6.13;;;4.47;;
33987;SDS011;37428;53.580;-1.666;2023-07-20T12:58:01;16.70;;;5.25;;
33987;SDS011;37428;53.580;-1.666;2023-07-20T13:01:27;4.15;;;3.75;;
33987;SDS011;37428;53.580;-1.666;2023-07-20T13:04:33;6.82;;;4.20;;
33987;SDS011;37428;53.580;-1.666;2023-07-20T13:07:36;5.90;;;4.18;;
33987;SDS011;37428;53.580;-1.666;2023-07-20T13:10:44;5.05;;;3.38;;
33987;SDS011;37428;53.580;-1.666;2023-07-20T13:13:46;3.50;;;3.20;;
33987;SDS011;37428;53.580;-1.666;2023-07-20T13:16:48;3.78;;;3.35;;
33987;SDS011;37428;53.580;-1.666;2023-07-20T13:19:52;3.60;;;3.30;;
33987;SDS011;37428;53.580;-1.666;2023-07-20T13:22:57;5.45;;;3.15;;
33987;SDS011;37428;53.580;-1.666;2023-07-20T13:26:03;2.63;;;2.42;;
33987;SDS011;37428;53.580;-1.666;2023-07-20T13:29:06;2.85;;;2.58;;
33987;SDS011;37428;53.580;-1.666;2023-07-20T13:32:10;4.65;;;3.60;;
33987;SDS011;37428;53.580;-1.666;2023-07-20T13:35:17;3.30;;;2.58;;
33987;SDS011;37428;53.580;-1.666;2023-07-20T13:38:21;3.63;;;2.58;;
33987;SDS011;37428;53.580;-1.666;2023-07-20T13:41:23;2.60;;;2.40;;
33987;SDS011;37428;53.580;-1.666;2023-07-20T13:44:25;2.60;;;2.40;;
33987;SDS011;37428;53.580;-1.666;2023-07-20T13:47:39;4.22;;;2.88;;
33987;SDS011;37428;53.580;-1.666;2023-07-20T13:50:44;5.68;;;2.20;;
33987;SDS011;37428;53.580;-1.666;2023-07-20T13:53:47;3.40;;;2.58;;
33987;SDS011;37428;53.580;-1.666;2023-07-20T13:59:53;3.57;;;2.50;;
33987;SDS011;37428;53.580;-1.666;2023-07-20T14:02:55;4.30;;;2.55;;
33987;SDS011;37428;53.580;-1.666;2023-07-20T14:06:01;5.45;;;2.47;;
33987;SDS011;37428;53.580;-1.666;2023-07-20T14:09:03;2.92;;;2.58;;
33987;SDS011;37428;53.580;-1.666;2023-07-20T14:12:05;5.63;;;2.70;;
33987;SDS011;37428;53.580;-1.666;2023-07-20T14:15:12;4.22;;;3.00;;
33987;SDS011;37428;53.580;-1.666;2023-07-20T14:18:18;5.20;;;3.38;;
33987;SDS011;37428;53.580;-1.666;2023-07-20T14:21:23;3.92;;;3.08;;
33987;SDS011;37428;53.580;-1.666;2023-07-20T14:24:28;5.88;;;3.55;;
33987;SDS011;37428;53.580;-1.666;2023-07-20T14:27:30;6.20;;;2.72;;
33987;SDS011;37428;53.580;-1.666;2023-07-20T14:34:00;1.90;;;1.80;;
33987;SDS011;37428;53.580;-1.666;2023-07-20T14:37:05;5.43;;;2.67;;
33987;SDS011;37428;53.580;-1.666;2023-07-20T14:40:23;4.30;;;2.65;;
33987;SDS011;37428;53.580;-1.666;2023-07-20T14:43:32;5.55;;;2.47;;
33987;SDS011;37428;53.580;-1.666;2023-07-20T14:46:43;4.50;;;2.80;;
33987;SDS011;37428;53.580;-1.666;2023-07-20T14:49:51;4.60;;;2.88;;
33987;SDS011;37428;53.580;-1.666;2023-07-20T14:52:54;2.95;;;2.67;;
33987;SDS011;37428;53.580;-1.666;2023-07-20T14:55:59;4.30;;;2.55;;
33987;SDS011;37428;53.580;-1.666;2023-07-20T14:59:06;4.15;;;3.45;;
33987;SDS011;37428;53.580;-1.666;2023-07-20T15:02:11;5.03;;;3.40;;
33987;SDS011;37428;53.580;-1.666;2023-07-20T15:05:24;5.32;;;3.30;;
33987;SDS011;37428;53.580;-1.666;2023-07-20T15:08:44;4.88;;;3.25;;
33987;SDS011;37428;53.580;-1.666;2023-07-20T15:11:47;5.57;;;3.67;;
33987;SDS011;37428;53.580;-1.666;2023-07-20T15:15:04;4.10;;;3.78;;
33987;SDS011;37428;53.580;-1.666;2023-07-20T15:18:07;4.05;;;3.60;;
33987;SDS011;37428;53.580;-1.666;2023-07-20T15:21:09;5.20;;;3.75;;
33987;SDS011;37428;53.580;-1.666;2023-07-20T15:32:57;6.20;;;4.95;;
33987;SDS011;37428;53.580;-1.666;2023-07-20T15:34:25;6.03;;;4.20;;
33987;SDS011;37428;53.580;-1.666;2023-07-20T15:37:31;5.88;;;3.83;;
33987;SDS011;37428;53.580;-1.666;2023-07-20T15:40:40;7.78;;;4.70;;
33987;SDS011;37428;53.580;-1.666;2023-07-20T15:43:46;8.80;;;4.35;;
33987;SDS011;37428;53.580;-1.666;2023-07-20T15:47:04;4.90;;;4.20;;
33987;SDS011;37428;53.580;-1.666;2023-07-20T15:50:07;5.32;;;4.15;;
33987;SDS011;37428;53.580;-1.666;2023-07-20T15:53:18;5.50;;;3.70;;
33987;SDS011;37428;53.580;-1.666;2023-07-20T15:56:24;6.55;;;4.57;;
33987;SDS011;37428;53.580;-1.666;2023-07-20T15:59:33;5.63;;;4.38;;
33987;SDS011;37428;53.580;-1.666;2023-07-20T16:02:35;7.38;;;4.00;;
33987;SDS011;37428;53.580;-1.666;2023-07-20T16:05:37;6.28;;;4.03;;
33987;SDS011;37428;53.580;-1.666;2023-07-20T16:08:39;5.13;;;4.63;;
33987;SDS011;37428;53.580;-1.666;2023-07-20T16:11:45;5.18;;;4.32;;
33987;SDS011;37428;53.580;-1.666;2023-07-20T16:14:49;5.03;;;4.50;;
33987;SDS011;37428;53.580;-1.666;2023-07-20T16:17:51;6.43;;;4.60;;
33987;SDS011;37428;53.580;-1.666;2023-07-20T16:21:03;4.90;;;4.50;;
33987;SDS011;37428;53.580;-1.666;2023-07-20T16:24:21;5.70;;;5.10;;
33987;SDS011;37428;53.580;-1.666;2023-07-20T16:27:39;5.30;;;4.80;;
33987;SDS011;37428;53.580;-1.666;2023-07-20T16:30:44;5.40;;;4.95;;
33987;SDS011;37428;53.580;-1.666;2023-07-20T16:33:49;5.13;;;4.55;;
33987;SDS011;37428;53.580;-1.666;2023-07-20T16:36:52;5.68;;;4.90;;
33987;SDS011;37428;53.580;-1.666;2023-07-20T16:39:56;6.60;;;5.10;;
33987;SDS011;37428;53.580;-1.666;2023-07-20T16:43:00;6.00;;;4.85;;
33987;SDS011;37428;53.580;-1.666;2023-07-20T16:46:32;6.93;;;5.68;;
33987;SDS011;37428;53.580;-1.666;2023-07-20T16:49:51;9.52;;;6.25;;
33987;SDS011;37428;53.580;-1.666;2023-07-20T16:53:12;9.25;;;6.70;;
33987;SDS011;37428;53.580;-1.666;2023-07-20T16:56:15;9.32;;;7.45;;
33987;SDS011;37428;53.580;-1.666;2023-07-20T16:59:18;8.00;;;6.75;;
33987;SDS011;37428;53.580;-1.666;2023-07-20T17:02:22;6.88;;;6.25;;
33987;SDS011;37428;53.580;-1.666;2023-07-20T17:05:37;8.88;;;6.40;;
33987;SDS011;37428;53.580;-1.666;2023-07-20T17:09:09;7.43;;;6.57;;
33987;SDS011;37428;53.580;-1.666;2023-07-20T17:12:41;7.40;;;6.57;;
33987;SDS011;37428;53.580;-1.666;2023-07-20T17:15:46;6.95;;;6.43;;
33987;SDS011;37428;53.580;-1.666;2023-07-20T17:18:51;7.97;;;6.03;;
33987;SDS011;37428;53.580;-1.666;2023-07-20T17:21:54;9.43;;;7.55;;
33987;SDS011;37428;53.580;-1.666;2023-07-20T17:25:03;9.23;;;6.90;;
33987;SDS011;37428;53.580;-1.666;2023-07-20T17:28:30;9.55;;;7.28;;
33987;SDS011;37428;53.580;-1.666;2023-07-20T17:31:44;6.53;;;5.90;;
33987;SDS011;37428;53.580;-1.666;2023-07-20T17:34:51;6.88;;;6.28;;
33987;SDS011;37428;53.580;-1.666;2023-07-20T17:37:58;7.15;;;6.22;;
33987;SDS011;37428;53.580;-1.666;2023-07-20T17:41:03;7.00;;;6.35;;
33987;SDS011;37428;53.580;-1.666;2023-07-20T17:47:18;8.50;;;7.28;;
33987;SDS011;37428;53.580;-1.666;2023-07-20T17:50:25;8.88;;;7.30;;
33987;SDS011;37428;53.580;-1.666;2023-07-20T17:53:28;7.95;;;6.78;;
33987;SDS011;37428;53.580;-1.666;2023-07-20T17:56:32;13.90;;;7.03;;
33987;SDS011;37428;53.580;-1.666;2023-07-20T17:59:35;8.00;;;7.22;;
33987;SDS011;37428;53.580;-1.666;2023-07-20T18:05:41;8.20;;;7.38;;
33987;SDS011;37428;53.580;-1.666;2023-07-20T18:08:48;8.52;;;7.40;;
33987;SDS011;37428;53.580;-1.666;2023-07-20T18:11:51;10.27;;;7.82;;
33987;SDS011;37428;53.580;-1.666;2023-07-20T18:14:53;10.93;;;7.35;;
33987;SDS011;37428;53.580;-1.666;2023-07-20T18:17:58;8.82;;;7.40;;
33987;SDS011;37428;53.580;-1.666;2023-07-20T18:21:05;8.68;;;6.72;;
33987;SDS011;37428;53.580;-1.666;2023-07-20T18:24:07;9.88;;;7.75;;
33987;SDS011;37428;53.580;-1.666;2023-07-20T18:27:10;8.25;;;7.43;;
33987;SDS011;37428;53.580;-1.666;2023-07-20T18:30:20;10.43;;;7.57;;
33987;SDS011;37428;53.580;-1.666;2023-07-20T18:37:21;11.68;;;7.30;;
33987;SDS011;37428;53.580;-1.666;2023-07-20T18:40:18;8.88;;;7.97;;
33987;SDS011;37428;53.580;-1.666;2023-07-20T18:43:21;9.68;;;8.40;;
33987;SDS011;37428;53.580;-1.666;2023-07-20T18:46:23;8.93;;;8.02;;
33987;SDS011;37428;53.580;-1.666;2023-07-20T18:49:31;8.85;;;7.95;;
33987;SDS011;37428;53.580;-1.666;2023-07-20T18:52:48;10.27;;;9.07;;
33987;SDS011;37428;53.580;-1.666;2023-07-20T18:56:01;10.85;;;9.77;;
33987;SDS011;37428;53.580;-1.666;2023-07-20T18:59:16;10.60;;;9.68;;
33987;SDS011;37428;53.580;-1.666;2023-07-20T19:02:20;11.35;;;9.93;;
33987;SDS011;37428;53.580;-1.666;2023-07-20T19:05:32;12.63;;;10.27;;
33987;SDS011;37428;53.580;-1.666;2023-07-20T19:08:37;11.05;;;10.00;;
33987;SDS011;37428;53.580;-1.666;2023-07-20T19:11:40;12.13;;;10.93;;
33987;SDS011;37428;53.580;-1.666;2023-07-20T19:14:42;13.23;;;12.02;;
33987;SDS011;37428;53.580;-1.666;2023-07-20T19:17:45;13.38;;;10.95;;
33987;SDS011;37428;53.580;-1.666;2023-07-20T19:20:49;12.02;;;10.93;;
33987;SDS011;37428;53.580;-1.666;2023-07-20T19:24:07;11.82;;;10.75;;
33987;SDS011;37428;53.580;-1.666;2023-07-20T19:27:15;10.55;;;9.55;;
33987;SDS011;37428;53.580;-1.666;2023-07-20T19:30:31;12.48;;;11.27;;
33987;SDS011;37428;53.580;-1.666;2023-07-20T19:33:33;11.10;;;10.00;;
33987;SDS011;37428;53.580;-1.666;2023-07-20T19:36:37;12.93;;;10.65;;
33987;SDS011;37428;53.580;-1.666;2023-07-20T19:39:49;11.27;;;10.13;;
33987;SDS011;37428;53.580;-1.666;2023-07-20T19:42:51;11.80;;;10.68;;
33987;SDS011;37428;53.580;-1.666;2023-07-20T19:46:07;12.57;;;11.45;;
33987;SDS011;37428;53.580;-1.666;2023-07-20T19:49:11;11.73;;;10.55;;
33987;SDS011;37428;53.580;-1.666;2023-07-20T19:52:14;11.38;;;10.25;;
33987;SDS011;37428;53.580;-1.666;2023-07-20T19:55:17;11.15;;;10.10;;
33987;SDS011;37428;53.580;-1.666;2023-07-20T19:58:25;10.18;;;9.20;;
33987;SDS011;37428;53.580;-1.666;2023-07-20T20:01:33;11.80;;;10.68;;
33987;SDS011;37428;53.580;-1.666;2023-07-20T20:04:37;11.77;;;10.77;;
33987;SDS011;37428;53.580;-1.666;2023-07-20T20:07:44;10.63;;;9.63;;
33987;SDS011;37428;53.580;-1.666;2023-07-20T20:11:20;14.43;;;11.05;;
33987;SDS011;37428;53.580;-1.666;2023-07-20T20:14:28;12.10;;;11.00;;
33987;SDS011;37428;53.580;-1.666;2023-07-20T20:17:30;11.55;;;10.52;;